sensor_id;sensor_type;location;lat;lon;timestamp;temperature;humidity
17146;DHT22;8688;54.444;18.444;2023-07-31T00:01:50;15.10;99.90
17146;DHT22;8688;54.444;18.444;2023-07-31T00:04:18;15.10;99.90
17146;DHT22;8688;54.444;18.444;2023-07-31T00:06:45;15.10;99.90
17146;DHT22;8688;54.444;18.444;2023-07-31T00:09:13;15.10;99.90
17146;DHT22;8688;54.444;18.444;2023-07-31T00:11:40;15.00;99.90
17146;DHT22;8688;54.444;18.444;2023-07-31T00:14:09;15.00;99.90
17146;DHT22;8688;54.444;18.444;2023-07-31T00:16:37;15.10;99.90
17146;DHT22;8688;54.444;18.444;2023-07-31T00:19:04;15.00;99.90
17146;DHT22;8688;54.444;18.444;2023-07-31T00:21:32;15.00;99.90
17146;DHT22;8688;54.444;18.444;2023-07-31T00:23:59;14.90;99.90
17146;DHT22;8688;54.444;18.444;2023-07-31T00:26:27;14.90;99.90
17146;DHT22;8688;54.444;18.444;2023-07-31T00:28:54;14.90;99.90
17146;DHT22;8688;54.444;18.444;2023-07-31T00:31:23;14.80;99.90
17146;DHT22;8688;54.444;18.444;2023-07-31T00:33:50;14.80;99.90
17146;DHT22;8688;54.444;18.444;2023-07-31T00:36:18;14.70;99.90
17146;DHT22;8688;54.444;18.444;2023-07-31T00:38:45;14.70;99.90
17146;DHT22;8688;54.444;18.444;2023-07-31T00:41:13;14.70;99.90
17146;DHT22;8688;54.444;18.444;2023-07-31T00:43:41;14.70;99.90
17146;DHT22;8688;54.444;18.444;2023-07-31T00:46:08;14.70;99.90
17146;DHT22;8688;54.444;18.444;2023-07-31T00:48:37;14.70;99.90
17146;DHT22;8688;54.444;18.444;2023-07-31T00:51:06;14.60;99.90
17146;DHT22;8688;54.444;18.444;2023-07-31T00:53:35;14.50;99.90
17146;DHT22;8688;54.444;18.444;2023-07-31T00:56:03;14.50;99.90
17146;DHT22;8688;54.444;18.444;2023-07-31T00:58:31;14.50;99.90
17146;DHT22;8688;54.444;18.444;2023-07-31T01:00:59;14.50;99.90
17146;DHT22;8688;54.444;18.444;2023-07-31T01:03:27;14.50;99.90
17146;DHT22;8688;54.444;18.444;2023-07-31T01:06:05;14.50;99.90
17146;DHT22;8688;54.444;18.444;2023-07-31T01:08:40;14.50;99.90
17146;DHT22;8688;54.444;18.444;2023-07-31T01:11:11;14.50;99.90
17146;DHT22;8688;54.444;18.444;2023-07-31T01:13:43;14.50;99.90
17146;DHT22;8688;54.444;18.444;2023-07-31T01:16:11;14.50;99.90
17146;DHT22;8688;54.444;18.444;2023-07-31T01:18:39;14.40;99.90
17146;DHT22;8688;54.444;18.444;2023-07-31T01:21:22;14.50;99.90
17146;DHT22;8688;54.444;18.444;2023-07-31T01:24:10;14.40;99.90
17146;DHT22;8688;54.444;18.444;2023-07-31T01:26:47;14.40;99.90
17146;DHT22;8688;54.444;18.444;2023-07-31T01:29:20;14.50;99.90
17146;DHT22;8688;54.444;18.444;2023-07-31T01:31:53;14.50;99.90
17146;DHT22;8688;54.444;18.444;2023-07-31T01:34:22;14.40;99.90
17146;DHT22;8688;54.444;18.444;2023-07-31T01:36:50;14.40;99.90
17146;DHT22;8688;54.444;18.444;2023-07-31T01:39:20;14.40;99.90
17146;DHT22;8688;54.444;18.444;2023-07-31T01:41:49;14.40;99.90
17146;DHT22;8688;54.444;18.444;2023-07-31T01:44:16;14.40;99.90
17146;DHT22;8688;54.444;18.444;2023-07-31T01:46:44;14.40;99.90
17146;DHT22;8688;54.444;18.444;2023-07-31T01:49:11;14.40;99.90
17146;DHT22;8688;54.444;18.444;2023-07-31T01:51:39;14.40;99.90
17146;DHT22;8688;54.444;18.444;2023-07-31T01:54:07;14.30;99.90
17146;DHT22;8688;54.444;18.444;2023-07-31T01:56:34;14.30;99.90
17146;DHT22;8688;54.444;18.444;2023-07-31T01:59:03;14.30;99.90
17146;DHT22;8688;54.444;18.444;2023-07-31T02:01:31;14.20;99.90
17146;DHT22;8688;54.444;18.444;2023-07-31T02:03:58;14.20;99.90
17146;DHT22;8688;54.444;18.444;2023-07-31T02:06:26;14.20;99.90
17146;DHT22;8688;54.444;18.444;2023-07-31T02:08:54;14.10;99.90
17146;DHT22;8688;54.444;18.444;2023-07-31T02:11:21;14.20;99.90
17146;DHT22;8688;54.444;18.444;2023-07-31T02:13:49;14.10;99.90
17146;DHT22;8688;54.444;18.444;2023-07-31T02:16:17;14.10;99.90
17146;DHT22;8688;54.444;18.444;2023-07-31T02:18:45;14.10;99.90
17146;DHT22;8688;54.444;18.444;2023-07-31T02:21:13;14.00;99.90
17146;DHT22;8688;54.444;18.444;2023-07-31T02:23:40;14.00;99.90
17146;DHT22;8688;54.444;18.444;2023-07-31T02:26:07;14.00;99.90
17146;DHT22;8688;54.444;18.444;2023-07-31T02:28:35;14.00;99.90
17146;DHT22;8688;54.444;18.444;2023-07-31T02:31:03;14.00;99.90
17146;DHT22;8688;54.444;18.444;2023-07-31T02:33:32;14.00;99.90
17146;DHT22;8688;54.444;18.444;2023-07-31T02:35:59;13.90;99.90
17146;DHT22;8688;54.444;18.444;2023-07-31T02:38:27;13.90;99.90
17146;DHT22;8688;54.444;18.444;2023-07-31T02:40:54;13.90;99.90
17146;DHT22;8688;54.444;18.444;2023-07-31T02:43:22;13.90;99.90
17146;DHT22;8688;54.444;18.444;2023-07-31T02:45:51;13.90;99.90
17146;DHT22;8688;54.444;18.444;2023-07-31T02:48:19;13.90;99.90
17146;DHT22;8688;54.444;18.444;2023-07-31T02:50:48;13.80;99.90
17146;DHT22;8688;54.444;18.444;2023-07-31T02:53:16;13.80;99.90
17146;DHT22;8688;54.444;18.444;2023-07-31T02:55:43;13.80;99.90
17146;DHT22;8688;54.444;18.444;2023-07-31T02:58:11;13.80;99.90
17146;DHT22;8688;54.444;18.444;2023-07-31T03:00:44;13.80;99.90
17146;DHT22;8688;54.444;18.444;2023-07-31T03:03:11;13.80;99.90
17146;DHT22;8688;54.444;18.444;2023-07-31T03:05:39;13.80;99.90
17146;DHT22;8688;54.444;18.444;2023-07-31T03:08:08;13.80;99.90
17146;DHT22;8688;54.444;18.444;2023-07-31T03:10:35;13.80;99.90
17146;DHT22;8688;54.444;18.444;2023-07-31T03:13:03;13.80;99.90
17146;DHT22;8688;54.444;18.444;2023-07-31T03:15:30;13.80;99.90
17146;DHT22;8688;54.444;18.444;2023-07-31T03:17:58;13.70;99.90
17146;DHT22;8688;54.444;18.444;2023-07-31T03:20:26;13.70;99.90
17146;DHT22;8688;54.444;18.444;2023-07-31T03:22:54;13.80;99.90
17146;DHT22;8688;54.444;18.444;2023-07-31T03:25:23;13.80;99.90
17146;DHT22;8688;54.444;18.444;2023-07-31T03:27:50;13.80;99.90
17146;DHT22;8688;54.444;18.444;2023-07-31T03:30:18;13.80;99.90
17146;DHT22;8688;54.444;18.444;2023-07-31T03:32:45;13.80;99.90
17146;DHT22;8688;54.444;18.444;2023-07-31T03:35:13;13.80;99.90
17146;DHT22;8688;54.444;18.444;2023-07-31T03:37:40;13.80;99.90
17146;DHT22;8688;54.444;18.444;2023-07-31T03:40:09;13.80;99.90
17146;DHT22;8688;54.444;18.444;2023-07-31T03:42:38;13.90;99.90
17146;DHT22;8688;54.444;18.444;2023-07-31T03:45:07;13.90;99.90
17146;DHT22;8688;54.444;18.444;2023-07-31T03:47:35;13.90;99.90
17146;DHT22;8688;54.444;18.444;2023-07-31T03:50:02;13.90;99.90
17146;DHT22;8688;54.444;18.444;2023-07-31T03:52:30;13.90;99.90
17146;DHT22;8688;54.444;18.444;2023-07-31T03:54:57;13.90;99.90
17146;DHT22;8688;54.444;18.444;2023-07-31T03:57:25;14.00;99.90
17146;DHT22;8688;54.444;18.444;2023-07-31T03:59:54;14.00;99.90
17146;DHT22;8688;54.444;18.444;2023-07-31T04:02:22;14.00;99.90
17146;DHT22;8688;54.444;18.444;2023-07-31T04:04:49;14.00;99.90
17146;DHT22;8688;54.444;18.444;2023-07-31T04:07:17;14.00;99.90
17146;DHT22;8688;54.444;18.444;2023-07-31T04:09:44;14.00;99.90
17146;DHT22;8688;54.444;18.444;2023-07-31T04:12:12;14.00;99.90
17146;DHT22;8688;54.444;18.444;2023-07-31T04:14:39;14.10;99.90
17146;DHT22;8688;54.444;18.444;2023-07-31T04:17:08;14.10;99.90
17146;DHT22;8688;54.444;18.444;2023-07-31T04:19:36;14.10;99.90
17146;DHT22;8688;54.444;18.444;2023-07-31T04:22:04;14.10;99.90
17146;DHT22;8688;54.444;18.444;2023-07-31T04:24:31;14.10;99.90
17146;DHT22;8688;54.444;18.444;2023-07-31T04:26:59;14.20;99.90
17146;DHT22;8688;54.444;18.444;2023-07-31T04:29:26;14.20;99.90
17146;DHT22;8688;54.444;18.444;2023-07-31T04:31:54;14.20;99.90
17146;DHT22;8688;54.444;18.444;2023-07-31T04:34:23;14.30;99.90
17146;DHT22;8688;54.444;18.444;2023-07-31T04:36:50;14.30;99.90
17146;DHT22;8688;54.444;18.444;2023-07-31T04:39:18;14.40;99.90
17146;DHT22;8688;54.444;18.444;2023-07-31T04:41:45;14.40;99.90
17146;DHT22;8688;54.444;18.444;2023-07-31T04:44:13;14.40;99.90
17146;DHT22;8688;54.444;18.444;2023-07-31T04:46:41;14.40;99.90
17146;DHT22;8688;54.444;18.444;2023-07-31T04:49:08;14.40;99.90
17146;DHT22;8688;54.444;18.444;2023-07-31T04:51:37;14.40;99.90
17146;DHT22;8688;54.444;18.444;2023-07-31T04:54:05;14.40;99.90
17146;DHT22;8688;54.444;18.444;2023-07-31T04:56:32;14.30;99.90
17146;DHT22;8688;54.444;18.444;2023-07-31T04:59:00;14.30;99.90
17146;DHT22;8688;54.444;18.444;2023-07-31T05:01:27;14.30;99.90
17146;DHT22;8688;54.444;18.444;2023-07-31T05:03:55;14.30;99.90
17146;DHT22;8688;54.444;18.444;2023-07-31T05:06:22;14.30;99.90
17146;DHT22;8688;54.444;18.444;2023-07-31T05:08:51;14.30;99.90
17146;DHT22;8688;54.444;18.444;2023-07-31T05:11:19;14.30;99.90
17146;DHT22;8688;54.444;18.444;2023-07-31T05:13:46;14.30;99.90
17146;DHT22;8688;54.444;18.444;2023-07-31T05:16:14;14.30;99.90
17146;DHT22;8688;54.444;18.444;2023-07-31T05:18:41;14.30;99.90
17146;DHT22;8688;54.444;18.444;2023-07-31T05:21:09;14.40;99.90
17146;DHT22;8688;54.444;18.444;2023-07-31T05:23:36;14.50;99.90
17146;DHT22;8688;54.444;18.444;2023-07-31T05:26:06;14.60;99.90
17146;DHT22;8688;54.444;18.444;2023-07-31T05:28:36;14.70;99.90
17146;DHT22;8688;54.444;18.444;2023-07-31T05:31:04;14.80;99.90
17146;DHT22;8688;54.444;18.444;2023-07-31T05:33:32;14.80;99.90
17146;DHT22;8688;54.444;18.444;2023-07-31T05:36:00;14.90;99.90
17146;DHT22;8688;54.444;18.444;2023-07-31T05:38:27;14.90;99.90
17146;DHT22;8688;54.444;18.444;2023-07-31T05:40:55;15.00;99.90
17146;DHT22;8688;54.444;18.444;2023-07-31T05:43:24;15.00;99.90
17146;DHT22;8688;54.444;18.444;2023-07-31T05:45:52;15.10;99.90
17146;DHT22;8688;54.444;18.444;2023-07-31T05:48:19;15.10;99.90
17146;DHT22;8688;54.444;18.444;2023-07-31T05:50:47;15.10;99.90
17146;DHT22;8688;54.444;18.444;2023-07-31T05:53:14;15.10;99.90
17146;DHT22;8688;54.444;18.444;2023-07-31T05:55:41;15.20;99.90
17146;DHT22;8688;54.444;18.444;2023-07-31T05:58:09;15.20;99.90
17146;DHT22;8688;54.444;18.444;2023-07-31T06:00:38;15.20;99.90
17146;DHT22;8688;54.444;18.444;2023-07-31T06:03:06;15.30;99.90
17146;DHT22;8688;54.444;18.444;2023-07-31T06:05:34;15.40;99.90
17146;DHT22;8688;54.444;18.444;2023-07-31T06:08:02;15.40;99.90
17146;DHT22;8688;54.444;18.444;2023-07-31T06:10:29;15.50;99.90
17146;DHT22;8688;54.444;18.444;2023-07-31T06:12:57;15.50;99.90
17146;DHT22;8688;54.444;18.444;2023-07-31T06:15:24;15.50;99.90
17146;DHT22;8688;54.444;18.444;2023-07-31T06:17:53;15.60;99.90
17146;DHT22;8688;54.444;18.444;2023-07-31T06:20:21;15.60;99.90
17146;DHT22;8688;54.444;18.444;2023-07-31T06:22:49;15.60;99.90
17146;DHT22;8688;54.444;18.444;2023-07-31T06:25:16;15.70;99.90
17146;DHT22;8688;54.444;18.444;2023-07-31T06:27:44;15.80;99.90
17146;DHT22;8688;54.444;18.444;2023-07-31T06:30:12;15.80;99.90
17146;DHT22;8688;54.444;18.444;2023-07-31T06:32:39;15.90;99.90
17146;DHT22;8688;54.444;18.444;2023-07-31T06:35:09;15.90;99.90
17146;DHT22;8688;54.444;18.444;2023-07-31T06:37:36;16.10;99.90
17146;DHT22;8688;54.444;18.444;2023-07-31T06:40:07;16.10;99.90
17146;DHT22;8688;54.444;18.444;2023-07-31T06:42:35;16.10;99.90
17146;DHT22;8688;54.444;18.444;2023-07-31T06:45:06;16.10;99.90
17146;DHT22;8688;54.444;18.444;2023-07-31T06:47:34;16.20;99.90
17146;DHT22;8688;54.444;18.444;2023-07-31T06:50:01;16.20;99.90
17146;DHT22;8688;54.444;18.444;2023-07-31T06:52:31;16.20;99.90
17146;DHT22;8688;54.444;18.444;2023-07-31T06:55:02;16.20;99.90
17146;DHT22;8688;54.444;18.444;2023-07-31T06:57:31;16.30;99.90
17146;DHT22;8688;54.444;18.444;2023-07-31T06:59:59;16.30;99.90
17146;DHT22;8688;54.444;18.444;2023-07-31T07:02:26;16.30;52.30
17146;DHT22;8688;54.444;18.444;2023-07-31T07:04:54;16.40;91.30
17146;DHT22;8688;54.444;18.444;2023-07-31T07:07:21;16.40;13.10
17146;DHT22;8688;54.444;18.444;2023-07-31T07:09:50;16.50;61.00
17146;DHT22;8688;54.444;18.444;2023-07-31T07:12:18;16.50;91.90
17146;DHT22;8688;54.444;18.444;2023-07-31T07:14:46;16.60;58.30
17146;DHT22;8688;54.444;18.444;2023-07-31T07:17:14;16.70;1.00
17146;DHT22;8688;54.444;18.444;2023-07-31T07:19:41;16.70;9.50
17146;DHT22;8688;54.444;18.444;2023-07-31T07:22:09;16.90;1.00
17146;DHT22;8688;54.444;18.444;2023-07-31T07:24:38;16.90;1.00
17146;DHT22;8688;54.444;18.444;2023-07-31T07:27:08;17.00;1.00
17146;DHT22;8688;54.444;18.444;2023-07-31T07:29:37;17.10;1.00
17146;DHT22;8688;54.444;18.444;2023-07-31T07:32:05;17.00;1.00
17146;DHT22;8688;54.444;18.444;2023-07-31T07:34:33;17.10;1.00
17146;DHT22;8688;54.444;18.444;2023-07-31T07:37:01;17.10;1.00
17146;DHT22;8688;54.444;18.444;2023-07-31T07:39:28;17.10;1.00
17146;DHT22;8688;54.444;18.444;2023-07-31T07:41:56;17.10;1.00
17146;DHT22;8688;54.444;18.444;2023-07-31T07:44:25;17.20;1.00
17146;DHT22;8688;54.444;18.444;2023-07-31T07:46:52;17.30;1.00
17146;DHT22;8688;54.444;18.444;2023-07-31T07:49:20;17.30;1.00
17146;DHT22;8688;54.444;18.444;2023-07-31T07:51:48;17.30;1.00
17146;DHT22;8688;54.444;18.444;2023-07-31T07:54:16;17.30;1.00
17146;DHT22;8688;54.444;18.444;2023-07-31T07:56:43;17.40;1.00
17146;DHT22;8688;54.444;18.444;2023-07-31T07:59:11;17.40;1.00
17146;DHT22;8688;54.444;18.444;2023-07-31T08:01:40;17.40;1.00
17146;DHT22;8688;54.444;18.444;2023-07-31T08:04:08;17.50;1.00
17146;DHT22;8688;54.444;18.444;2023-07-31T08:06:36;17.60;93.40
17146;DHT22;8688;54.444;18.444;2023-07-31T08:09:03;17.70;1.00
17146;DHT22;8688;54.444;18.444;2023-07-31T08:11:32;17.80;99.90
17146;DHT22;8688;54.444;18.444;2023-07-31T08:14:00;17.80;1.00
17146;DHT22;8688;54.444;18.444;2023-07-31T08:16:27;17.90;1.00
17146;DHT22;8688;54.444;18.444;2023-07-31T08:18:56;18.00;99.90
17146;DHT22;8688;54.444;18.444;2023-07-31T08:21:24;18.00;99.90
17146;DHT22;8688;54.444;18.444;2023-07-31T08:23:51;18.10;1.00
17146;DHT22;8688;54.444;18.444;2023-07-31T08:26:19;18.00;1.00
17146;DHT22;8688;54.444;18.444;2023-07-31T08:28:47;18.00;1.00
17146;DHT22;8688;54.444;18.444;2023-07-31T08:31:14;18.10;99.90
17146;DHT22;8688;54.444;18.444;2023-07-31T08:33:42;18.10;99.90
17146;DHT22;8688;54.444;18.444;2023-07-31T08:36:11;18.20;1.00
17146;DHT22;8688;54.444;18.444;2023-07-31T08:38:39;18.30;1.00
17146;DHT22;8688;54.444;18.444;2023-07-31T08:41:07;18.30;63.30
17146;DHT22;8688;54.444;18.444;2023-07-31T08:43:36;18.30;99.90
17146;DHT22;8688;54.444;18.444;2023-07-31T08:46:05;18.20;64.50
17146;DHT22;8688;54.444;18.444;2023-07-31T08:48:36;18.30;1.00
17146;DHT22;8688;54.444;18.444;2023-07-31T08:51:05;18.40;1.00
17146;DHT22;8688;54.444;18.444;2023-07-31T08:53:34;18.50;1.00
17146;DHT22;8688;54.444;18.444;2023-07-31T08:56:02;18.60;1.00
17146;DHT22;8688;54.444;18.444;2023-07-31T08:58:32;18.70;1.00
17146;DHT22;8688;54.444;18.444;2023-07-31T09:01:01;18.90;1.00
17146;DHT22;8688;54.444;18.444;2023-07-31T09:03:33;18.90;99.90
17146;DHT22;8688;54.444;18.444;2023-07-31T09:06:02;18.90;1.00
17146;DHT22;8688;54.444;18.444;2023-07-31T09:08:34;19.00;1.00
17146;DHT22;8688;54.444;18.444;2023-07-31T09:11:02;19.00;99.90
17146;DHT22;8688;54.444;18.444;2023-07-31T09:13:31;19.10;99.90
17146;DHT22;8688;54.444;18.444;2023-07-31T09:16:00;19.20;99.90
17146;DHT22;8688;54.444;18.444;2023-07-31T09:18:27;19.10;1.00
17146;DHT22;8688;54.444;18.444;2023-07-31T09:21:02;19.10;1.00
17146;DHT22;8688;54.444;18.444;2023-07-31T09:23:45;19.10;1.00
17146;DHT22;8688;54.444;18.444;2023-07-31T09:26:29;19.10;1.00
17146;DHT22;8688;54.444;18.444;2023-07-31T09:28:56;19.20;1.00
17146;DHT22;8688;54.444;18.444;2023-07-31T09:31:32;19.30;1.00
17146;DHT22;8688;54.444;18.444;2023-07-31T09:34:03;19.40;1.00
17146;DHT22;8688;54.444;18.444;2023-07-31T09:36:30;19.50;1.00
17146;DHT22;8688;54.444;18.444;2023-07-31T09:39:03;19.60;99.90
17146;DHT22;8688;54.444;18.444;2023-07-31T09:41:31;19.50;99.90
17146;DHT22;8688;54.444;18.444;2023-07-31T09:44:03;19.50;99.90
17146;DHT22;8688;54.444;18.444;2023-07-31T09:46:31;19.60;99.90
17146;DHT22;8688;54.444;18.444;2023-07-31T09:49:06;19.60;99.90
17146;DHT22;8688;54.444;18.444;2023-07-31T09:51:36;19.70;1.00
17146;DHT22;8688;54.444;18.444;2023-07-31T09:54:09;19.70;1.00
17146;DHT22;8688;54.444;18.444;2023-07-31T09:56:42;19.70;99.90
17146;DHT22;8688;54.444;18.444;2023-07-31T09:59:12;19.60;1.00
17146;DHT22;8688;54.444;18.444;2023-07-31T10:01:40;19.60;1.00
17146;DHT22;8688;54.444;18.444;2023-07-31T10:04:09;19.60;99.90
17146;DHT22;8688;54.444;18.444;2023-07-31T10:06:37;19.60;99.90
17146;DHT22;8688;54.444;18.444;2023-07-31T10:09:11;19.80;99.90
17146;DHT22;8688;54.444;18.444;2023-07-31T10:11:43;20.10;1.00
17146;DHT22;8688;54.444;18.444;2023-07-31T10:14:11;20.30;1.00
17146;DHT22;8688;54.444;18.444;2023-07-31T10:16:39;20.50;1.00
17146;DHT22;8688;54.444;18.444;2023-07-31T10:19:08;20.70;1.00
17146;DHT22;8688;54.444;18.444;2023-07-31T10:21:36;20.80;1.00
17146;DHT22;8688;54.444;18.444;2023-07-31T10:24:06;20.90;99.90
17146;DHT22;8688;54.444;18.444;2023-07-31T10:26:36;20.90;1.00
17146;DHT22;8688;54.444;18.444;2023-07-31T10:29:05;20.90;99.90
17146;DHT22;8688;54.444;18.444;2023-07-31T10:31:33;20.90;99.90
17146;DHT22;8688;54.444;18.444;2023-07-31T10:34:02;20.80;99.90
17146;DHT22;8688;54.444;18.444;2023-07-31T10:36:30;20.80;99.90
17146;DHT22;8688;54.444;18.444;2023-07-31T10:38:58;20.60;99.90
17146;DHT22;8688;54.444;18.444;2023-07-31T10:41:30;20.70;99.90
17146;DHT22;8688;54.444;18.444;2023-07-31T10:43:59;20.90;99.90
17146;DHT22;8688;54.444;18.444;2023-07-31T10:46:28;21.00;78.10
17146;DHT22;8688;54.444;18.444;2023-07-31T10:48:59;21.00;79.70
17146;DHT22;8688;54.444;18.444;2023-07-31T10:51:33;21.20;96.30
17146;DHT22;8688;54.444;18.444;2023-07-31T10:54:14;21.30;40.10
17146;DHT22;8688;54.444;18.444;2023-07-31T10:56:46;21.30;1.00
17146;DHT22;8688;54.444;18.444;2023-07-31T10:59:14;21.30;1.00
17146;DHT22;8688;54.444;18.444;2023-07-31T11:01:53;21.40;1.00
17146;DHT22;8688;54.444;18.444;2023-07-31T11:04:23;21.40;1.00
17146;DHT22;8688;54.444;18.444;2023-07-31T11:06:57;21.40;1.00
17146;DHT22;8688;54.444;18.444;2023-07-31T11:09:28;21.20;1.00
17146;DHT22;8688;54.444;18.444;2023-07-31T11:11:59;21.30;1.00
17146;DHT22;8688;54.444;18.444;2023-07-31T11:14:26;21.30;1.00
17146;DHT22;8688;54.444;18.444;2023-07-31T11:16:54;21.30;1.00
17146;DHT22;8688;54.444;18.444;2023-07-31T11:19:22;21.10;1.00
17146;DHT22;8688;54.444;18.444;2023-07-31T11:21:51;21.20;1.00
17146;DHT22;8688;54.444;18.444;2023-07-31T11:24:18;21.30;1.00
17146;DHT22;8688;54.444;18.444;2023-07-31T11:26:50;21.30;1.00
17146;DHT22;8688;54.444;18.444;2023-07-31T11:29:20;21.50;1.00
17146;DHT22;8688;54.444;18.444;2023-07-31T11:31:47;21.70;1.00
17146;DHT22;8688;54.444;18.444;2023-07-31T11:34:17;21.70;1.00
17146;DHT22;8688;54.444;18.444;2023-07-31T11:36:53;21.90;10.30
17146;DHT22;8688;54.444;18.444;2023-07-31T11:39:22;22.00;1.00
17146;DHT22;8688;54.444;18.444;2023-07-31T11:41:52;22.30;6.60
17146;DHT22;8688;54.444;18.444;2023-07-31T11:44:37;22.40;1.00
17146;DHT22;8688;54.444;18.444;2023-07-31T11:47:05;22.30;1.00
17146;DHT22;8688;54.444;18.444;2023-07-31T11:49:37;22.30;1.00
17146;DHT22;8688;54.444;18.444;2023-07-31T11:52:05;22.60;32.80
17146;DHT22;8688;54.444;18.444;2023-07-31T11:54:32;22.70;1.00
17146;DHT22;8688;54.444;18.444;2023-07-31T11:57:00;22.80;50.90
17146;DHT22;8688;54.444;18.444;2023-07-31T11:59:30;22.90;1.00
17146;DHT22;8688;54.444;18.444;2023-07-31T12:01:57;23.00;33.90
17146;DHT22;8688;54.444;18.444;2023-07-31T12:04:25;22.80;1.00
17146;DHT22;8688;54.444;18.444;2023-07-31T12:06:53;22.50;1.00
17146;DHT22;8688;54.444;18.444;2023-07-31T12:09:20;22.30;17.90
17146;DHT22;8688;54.444;18.444;2023-07-31T12:11:49;22.40;1.00
17146;DHT22;8688;54.444;18.444;2023-07-31T12:14:20;22.30;1.00
17146;DHT22;8688;54.444;18.444;2023-07-31T12:16:53;22.10;1.00
17146;DHT22;8688;54.444;18.444;2023-07-31T12:19:21;21.80;1.00
17146;DHT22;8688;54.444;18.444;2023-07-31T12:21:49;21.80;1.00
17146;DHT22;8688;54.444;18.444;2023-07-31T12:24:19;21.80;1.00
17146;DHT22;8688;54.444;18.444;2023-07-31T12:26:46;21.70;1.00
17146;DHT22;8688;54.444;18.444;2023-07-31T12:29:15;21.80;1.00
17146;DHT22;8688;54.444;18.444;2023-07-31T12:31:42;22.00;1.00
17146;DHT22;8688;54.444;18.444;2023-07-31T12:34:20;22.00;1.00
17146;DHT22;8688;54.444;18.444;2023-07-31T12:36:47;21.80;1.00
17146;DHT22;8688;54.444;18.444;2023-07-31T12:39:15;21.80;1.00
17146;DHT22;8688;54.444;18.444;2023-07-31T12:41:43;21.70;1.00
17146;DHT22;8688;54.444;18.444;2023-07-31T12:44:10;21.60;1.00
17146;DHT22;8688;54.444;18.444;2023-07-31T12:46:38;21.70;1.00
17146;DHT22;8688;54.444;18.444;2023-07-31T12:49:05;21.70;1.00
17146;DHT22;8688;54.444;18.444;2023-07-31T12:51:34;21.70;8.60
17146;DHT22;8688;54.444;18.444;2023-07-31T12:54:02;21.60;1.00
17146;DHT22;8688;54.444;18.444;2023-07-31T12:56:30;21.80;53.80
17146;DHT22;8688;54.444;18.444;2023-07-31T12:58:57;21.70;13.30
17146;DHT22;8688;54.444;18.444;2023-07-31T13:01:25;21.60;19.10
17146;DHT22;8688;54.444;18.444;2023-07-31T13:03:52;21.40;47.30
17146;DHT22;8688;54.444;18.444;2023-07-31T13:06:20;21.40;99.90
17146;DHT22;8688;54.444;18.444;2023-07-31T13:08:49;21.70;99.90
17146;DHT22;8688;54.444;18.444;2023-07-31T13:11:17;22.00;99.90
17146;DHT22;8688;54.444;18.444;2023-07-31T13:13:44;22.10;99.90
17146;DHT22;8688;54.444;18.444;2023-07-31T13:16:12;22.00;99.90
17146;DHT22;8688;54.444;18.444;2023-07-31T13:18:39;21.70;99.90
17146;DHT22;8688;54.444;18.444;2023-07-31T13:21:10;21.30;99.90
17146;DHT22;8688;54.444;18.444;2023-07-31T13:23:37;21.00;99.90
17146;DHT22;8688;54.444;18.444;2023-07-31T13:26:09;20.90;99.90
17146;DHT22;8688;54.444;18.444;2023-07-31T13:28:37;20.80;99.90
17146;DHT22;8688;54.444;18.444;2023-07-31T13:31:04;20.70;99.90
17146;DHT22;8688;54.444;18.444;2023-07-31T13:33:33;20.90;99.90
17146;DHT22;8688;54.444;18.444;2023-07-31T13:36:01;20.80;99.90
17146;DHT22;8688;54.444;18.444;2023-07-31T13:38:28;20.70;99.90
17146;DHT22;8688;54.444;18.444;2023-07-31T13:40:56;20.70;99.90
17146;DHT22;8688;54.444;18.444;2023-07-31T13:43:25;20.70;1.00
17146;DHT22;8688;54.444;18.444;2023-07-31T13:45:52;21.00;1.00
17146;DHT22;8688;54.444;18.444;2023-07-31T13:48:20;21.10;99.90
17146;DHT22;8688;54.444;18.444;2023-07-31T13:50:48;21.30;1.00
17146;DHT22;8688;54.444;18.444;2023-07-31T13:53:15;21.80;1.00
17146;DHT22;8688;54.444;18.444;2023-07-31T13:55:43;22.10;1.00
17146;DHT22;8688;54.444;18.444;2023-07-31T13:58:11;22.30;99.90
17146;DHT22;8688;54.444;18.444;2023-07-31T14:00:40;22.10;99.90
17146;DHT22;8688;54.444;18.444;2023-07-31T14:03:08;21.70;99.90
17146;DHT22;8688;54.444;18.444;2023-07-31T14:05:35;21.40;99.90
17146;DHT22;8688;54.444;18.444;2023-07-31T14:08:03;21.10;99.90
17146;DHT22;8688;54.444;18.444;2023-07-31T14:10:31;21.00;99.90
17146;DHT22;8688;54.444;18.444;2023-07-31T14:12:59;20.90;99.90
17146;DHT22;8688;54.444;18.444;2023-07-31T14:15:26;20.80;1.00
17146;DHT22;8688;54.444;18.444;2023-07-31T14:17:55;20.80;1.00
17146;DHT22;8688;54.444;18.444;2023-07-31T14:20:23;20.80;1.00
17146;DHT22;8688;54.444;18.444;2023-07-31T14:22:50;20.70;1.00
17146;DHT22;8688;54.444;18.444;2023-07-31T14:25:18;20.80;1.00
17146;DHT22;8688;54.444;18.444;2023-07-31T14:27:46;21.10;1.00
17146;DHT22;8688;54.444;18.444;2023-07-31T14:30:13;21.30;1.00
17146;DHT22;8688;54.444;18.444;2023-07-31T14:32:42;21.40;1.00
17146;DHT22;8688;54.444;18.444;2023-07-31T14:35:11;21.60;1.00
17146;DHT22;8688;54.444;18.444;2023-07-31T14:37:39;21.60;1.00
17146;DHT22;8688;54.444;18.444;2023-07-31T14:40:09;21.90;1.00
17146;DHT22;8688;54.444;18.444;2023-07-31T14:42:37;22.30;1.00
17146;DHT22;8688;54.444;18.444;2023-07-31T14:45:07;22.60;1.00
17146;DHT22;8688;54.444;18.444;2023-07-31T14:47:36;22.80;1.00
17146;DHT22;8688;54.444;18.444;2023-07-31T14:50:04;22.90;1.00
17146;DHT22;8688;54.444;18.444;2023-07-31T14:52:33;22.90;99.90
17146;DHT22;8688;54.444;18.444;2023-07-31T14:55:01;22.50;99.90
17146;DHT22;8688;54.444;18.444;2023-07-31T14:57:29;22.00;99.90
17146;DHT22;8688;54.444;18.444;2023-07-31T14:59:56;21.50;99.90
17146;DHT22;8688;54.444;18.444;2023-07-31T15:02:25;21.30;99.90
17146;DHT22;8688;54.444;18.444;2023-07-31T15:04:54;21.20;99.90
17146;DHT22;8688;54.444;18.444;2023-07-31T15:07:22;21.00;1.00
17146;DHT22;8688;54.444;18.444;2023-07-31T15:09:51;20.80;99.90
17146;DHT22;8688;54.444;18.444;2023-07-31T15:12:18;20.80;1.00
17146;DHT22;8688;54.444;18.444;2023-07-31T15:14:46;20.90;1.00
17146;DHT22;8688;54.444;18.444;2023-07-31T15:17:13;21.00;1.00
17146;DHT22;8688;54.444;18.444;2023-07-31T15:19:41;21.00;1.00
17146;DHT22;8688;54.444;18.444;2023-07-31T15:22:08;21.20;1.00
17146;DHT22;8688;54.444;18.444;2023-07-31T15:24:36;21.40;1.00
17146;DHT22;8688;54.444;18.444;2023-07-31T15:27:06;21.60;1.00
17146;DHT22;8688;54.444;18.444;2023-07-31T15:29:34;21.70;1.00
17146;DHT22;8688;54.444;18.444;2023-07-31T15:32:04;21.80;1.00
17146;DHT22;8688;54.444;18.444;2023-07-31T15:34:34;22.10;1.00
17146;DHT22;8688;54.444;18.444;2023-07-31T15:37:03;22.40;1.00
17146;DHT22;8688;54.444;18.444;2023-07-31T15:39:31;22.10;1.00
17146;DHT22;8688;54.444;18.444;2023-07-31T15:41:58;21.80;99.90
17146;DHT22;8688;54.444;18.444;2023-07-31T15:44:27;21.50;99.90